Time;durP1;ratioP1;P1;durP2;ratioP2;P2;SDS_P1;SDS_P2;PMS_P1;PMS_P2;Temp;Humidity;BMP_temperature;BMP_pressure;BME280_temperature;BME280_humidity;BME280_pressure;Samples;Min_cycle;Max_cycle;Signal;HPM_P1;HPM_P2
2021/04/20 00:00:14;;;;;;;54.27;38.43;;;;;;;;;;5037308;28;20173;-81
2021/04/20 00:02:39;;;;;;;50.60;37.30;;;;;;;;;;5037555;28;20175;-81
2021/04/20 00:05:06;;;;;;;50.50;37.00;;;;;;;;;;5037212;28;20282;-81
2021/04/20 00:07:31;;;;;;;53.10;35.43;;;;;;;;;;5037156;28;20262;-81
2021/04/20 00:09:57;;;;;;;52.37;35.60;;;;;;;;;;5037324;28;20200;-81
2021/04/20 00:12:22;;;;;;;51.10;37.37;;;;;;;;;;5036988;28;20181;-81
2021/04/20 00:14:47;;;;;;;59.33;42.33;;;;;;;;;;5037467;28;20172;-80
2021/04/20 00:17:13;;;;;;;50.23;33.90;;;;;;;;;;5037375;28;20216;-80
2021/04/20 00:19:38;;;;;;;59.63;32.93;;;;;;;;;;5037509;28;20214;-81
2021/04/20 00:22:03;;;;;;;51.20;31.30;;;;;;;;;;5037191;28;20172;-80
2021/04/20 00:24:29;;;;;;;53.23;41.27;;;;;;;;;;5037129;28;20180;-81
2021/04/20 00:26:54;;;;;;;39.70;29.77;;;;;;;;;;5037562;28;20492;-81
2021/04/20 00:29:19;;;;;;;47.30;32.97;;;;;;;;;;5036923;28;20287;-81
2021/04/20 00:31:45;;;;;;;73.87;38.73;;;;;;;;;;5037521;28;20169;-81
2021/04/20 00:34:10;;;;;;;51.97;33.63;;;;;;;;;;5037193;28;20212;-81
2021/04/20 00:36:35;;;;;;;46.20;33.67;;;;;;;;;;5036971;28;20276;-81
2021/04/20 00:39:01;;;;;;;39.33;31.93;;;;;;;;;;5037089;28;20263;-81
2021/04/20 00:41:26;;;;;;;34.93;27.90;;;;;;;;;;5036452;28;20531;-81
2021/04/20 00:43:52;;;;;;;43.77;30.80;;;;;;;;;;5036800;28;20207;-80
2021/04/20 00:46:18;;;;;;;42.40;30.27;;;;;;;;;;5036367;28;20531;-81
2021/04/20 00:48:44;;;;;;;35.13;28.17;;;;;;;;;;5036314;28;20307;-81
2021/04/20 00:51:09;;;;;;;40.67;29.90;;;;;;;;;;5035397;28;20184;-81
2021/04/20 00:53:35;;;;;;;36.57;29.63;;;;;;;;;;5036273;28;20175;-81
2021/04/20 00:56:00;;;;;;;39.97;30.73;;;;;;;;;;5036361;28;20165;-80
2021/04/20 00:58:26;;;;;;;33.13;27.20;;;;;;;;;;5036386;28;20187;-80
2021/04/20 01:00:51;;;;;;;30.07;24.57;;;;;;;;;;5036736;28;20319;-80
2021/04/20 01:03:17;;;;;;;33.77;24.10;;;;;;;;;;5036350;28;20204;-80
2021/04/20 01:05:43;;;;;;;26.70;21.17;;;;;;;;;;5036598;28;20175;-80
2021/04/20 01:08:16;;;;;;;24.83;20.63;;;;;;;;;;5036535;28;20177;-80
2021/04/20 01:10:42;;;;;;;27.20;20.13;;;;;;;;;;5036221;28;20176;-80
2021/04/20 01:13:08;;;;;;;26.43;20.40;;;;;;;;;;5036344;28;20177;-80
2021/04/20 01:15:34;;;;;;;27.00;19.73;;;;;;;;;;5036481;28;20498;-80
2021/04/20 01:18:16;;;;;;;25.67;19.37;;;;;;;;;;5035889;28;20254;-80
2021/04/20 01:20:48;;;;;;;29.07;21.07;;;;;;;;;;5036052;28;20612;-80
2021/04/20 01:23:14;;;;;;;28.70;21.07;;;;;;;;;;5036297;28;20194;-79
2021/04/20 01:25:40;;;;;;;28.60;22.27;;;;;;;;;;5035619;28;20173;-80
2021/04/20 01:28:05;;;;;;;28.43;21.67;;;;;;;;;;5035664;28;20169;-80
2021/04/20 01:30:32;;;;;;;28.93;21.47;;;;;;;;;;5036125;28;20254;-80
2021/04/20 01:33:00;;;;;;;29.87;22.43;;;;;;;;;;5035686;28;20172;-80
2021/04/20 01:35:25;;;;;;;32.50;24.37;;;;;;;;;;5035557;28;20218;-80
2021/04/20 01:37:50;;;;;;;28.57;23.47;;;;;;;;;;5035984;28;20173;-81
2021/04/20 01:40:16;;;;;;;35.57;25.07;;;;;;;;;;5036302;28;20228;-81
2021/04/20 01:42:41;;;;;;;28.93;23.37;;;;;;;;;;5035614;28;20172;-81
2021/04/20 01:45:07;;;;;;;30.57;22.23;;;;;;;;;;5035492;28;20275;-81
2021/04/20 01:47:32;;;;;;;29.93;22.53;;;;;;;;;;5035665;28;20529;-81
2021/04/20 01:49:59;;;;;;;35.57;27.30;;;;;;;;;;5035584;28;20204;-80
2021/04/20 01:52:24;;;;;;;39.77;28.17;;;;;;;;;;5035560;28;20168;-80
2021/04/20 01:54:49;;;;;;;35.63;24.87;;;;;;;;;;5035141;28;20219;-80
2021/04/20 01:57:15;;;;;;;30.17;20.97;;;;;;;;;;5035385;28;20181;-80
2021/04/20 01:59:40;;;;;;;26.50;21.03;;;;;;;;;;5035322;28;20165;-80
2021/04/20 02:02:06;;;;;;;28.03;21.30;;;;;;;;;;5034956;28;20171;-80
2021/04/20 02:04:31;;;;;;;25.17;20.27;;;;;;;;;;5035108;28;20168;-80
2021/04/20 02:06:57;;;;;;;30.47;20.03;;;;;;;;;;5035310;28;20199;-80
2021/04/20 02:09:22;;;;;;;28.33;18.83;;;;;;;;;;5035077;28;20204;-80
2021/04/20 02:11:48;;;;;;;23.00;18.57;;;;;;;;;;5035656;28;20218;-80
2021/04/20 02:14:13;;;;;;;23.77;19.30;;;;;;;;;;5035057;28;20547;-80
2021/04/20 02:16:40;;;;;;;23.83;19.67;;;;;;;;;;5035282;28;20168;-80
2021/04/20 02:19:07;;;;;;;21.97;18.27;;;;;;;;;;5034616;28;20623;-80
2021/04/20 02:21:32;;;;;;;26.07;19.77;;;;;;;;;;5034583;28;20169;-80
2021/04/20 02:23:58;;;;;;;23.10;19.27;;;;;;;;;;5035202;28;20222;-80
2021/04/20 02:26:25;;;;;;;25.10;18.77;;;;;;;;;;5034729;28;20165;-80
2021/04/20 02:28:50;;;;;;;24.70;18.53;;;;;;;;;;5034432;28;20532;-80
2021/04/20 02:31:16;;;;;;;26.23;18.67;;;;;;;;;;5034677;28;20175;-80
2021/04/20 02:33:42;;;;;;;24.70;18.57;;;;;;;;;;5034687;28;20169;-80
2021/04/20 02:36:07;;;;;;;23.07;19.47;;;;;;;;;;5034668;28;20219;-80
2021/04/20 02:38:32;;;;;;;23.67;18.57;;;;;;;;;;5034225;28;20682;-80
2021/04/20 02:41:00;;;;;;;26.00;19.30;;;;;;;;;;5034765;28;20537;-80
2021/04/20 02:43:26;;;;;;;24.17;20.10;;;;;;;;;;5034432;28;20177;-80
2021/04/20 02:45:52;;;;;;;28.80;22.03;;;;;;;;;;5034495;28;20255;-80
2021/04/20 02:48:17;;;;;;;26.90;20.97;;;;;;;;;;5034050;28;20172;-80
2021/04/20 02:50:43;;;;;;;44.47;27.27;;;;;;;;;;5034073;28;20223;-80
2021/04/20 02:53:09;;;;;;;37.43;24.70;;;;;;;;;;5034308;28;20179;-80
2021/04/20 02:55:35;;;;;;;36.47;25.67;;;;;;;;;;5034000;28;20168;-80
2021/04/20 02:58:02;;;;;;;34.87;22.73;;;;;;;;;;5033941;28;20176;-80
2021/04/20 03:00:27;;;;;;;38.50;27.43;;;;;;;;;;5034279;28;20177;-80
2021/04/20 03:02:53;;;;;;;34.83;25.73;;;;;;;;;;5034333;28;20175;-80
2021/04/20 03:05:19;;;;;;;33.37;24.77;;;;;;;;;;5033948;28;20685;-80
2021/04/20 03:07:45;;;;;;;32.87;23.93;;;;;;;;;;5033839;28;20172;-80
2021/04/20 03:10:11;;;;;;;31.80;22.80;;;;;;;;;;5034181;28;20695;-80
2021/04/20 03:12:38;;;;;;;30.83;22.73;;;;;;;;;;5034054;28;20677;-80
2021/04/20 03:15:03;;;;;;;28.40;22.67;;;;;;;;;;5033237;28;20177;-80
2021/04/20 03:17:29;;;;;;;26.87;21.70;;;;;;;;;;5034018;28;20184;-80
2021/04/20 03:19:55;;;;;;;27.50;19.90;;;;;;;;;;5034054;28;20176;-80
2021/04/20 03:22:21;;;;;;;25.70;20.03;;;;;;;;;;5034047;28;20210;-80
2021/04/20 03:24:55;;;;;;;25.63;20.63;;;;;;;;;;5034323;28;20651;-80
2021/04/20 03:27:20;;;;;;;23.77;20.20;;;;;;;;;;5034164;28;20168;-80
2021/04/20 03:29:47;;;;;;;25.97;20.87;;;;;;;;;;5034374;28;20207;-80
2021/04/20 03:32:12;;;;;;;36.67;23.57;;;;;;;;;;5033775;28;20180;-80
2021/04/20 03:34:39;;;;;;;26.40;20.40;;;;;;;;;;5034076;28;20173;-80
2021/04/20 03:37:06;;;;;;;24.57;19.60;;;;;;;;;;5033531;28;20728;-80
2021/04/20 03:39:35;;;;;;;25.40;19.50;;;;;;;;;;5033476;28;20236;-80
2021/04/20 03:42:04;;;;;;;28.27;20.83;;;;;;;;;;5033398;28;20686;-80
2021/04/20 03:44:32;;;;;;;24.10;18.57;;;;;;;;;;5033655;28;20271;-80
2021/04/20 03:46:59;;;;;;;27.83;19.97;;;;;;;;;;5033660;28;20177;-80
2021/04/20 03:49:35;;;;;;;45.27;29.90;;;;;;;;;;5033527;28;20558;-80
2021/04/20 03:52:01;;;;;;;45.17;30.03;;;;;;;;;;5033892;28;20184;-80
2021/04/20 03:54:29;;;;;;;38.13;27.07;;;;;;;;;;5033642;28;20513;-80
2021/04/20 03:56:55;;;;;;;44.13;27.33;;;;;;;;;;5033662;28;20171;-80
2021/04/20 03:59:22;;;;;;;38.33;25.87;;;;;;;;;;5033668;28;20613;-80
2021/04/20 04:01:49;;;;;;;39.27;26.73;;;;;;;;;;5033608;28;20563;-80
2021/04/20 04:04:18;;;;;;;42.53;27.13;;;;;;;;;;5033321;28;20570;-81
2021/04/20 04:06:44;;;;;;;36.07;25.03;;;;;;;;;;5033752;28;20165;-80
2021/04/20 04:09:10;;;;;;;51.07;32.23;;;;;;;;;;5033663;28;20206;-80
2021/04/20 04:11:37;;;;;;;56.10;36.70;;;;;;;;;;5033438;28;20177;-80
2021/04/20 04:14:03;;;;;;;62.63;38.73;;;;;;;;;;5033574;28;20627;-80
2021/04/20 04:16:30;;;;;;;56.40;35.33;;;;;;;;;;5033508;28;20181;-80
2021/04/20 04:18:56;;;;;;;43.30;29.30;;;;;;;;;;5033725;28;20230;-80
2021/04/20 04:21:25;;;;;;;45.97;29.83;;;;;;;;;;5033631;28;20256;-80
2021/04/20 04:23:54;;;;;;;41.97;28.90;;;;;;;;;;5033387;28;20169;-81
2021/04/20 04:26:26;;;;;;;48.13;31.33;;;;;;;;;;5033558;28;20180;-81
2021/04/20 04:28:53;;;;;;;41.97;30.93;;;;;;;;;;5037453;28;20204;-81
2021/04/20 04:31:19;;;;;;;40.93;29.47;;;;;;;;;;5036978;28;20187;-81
2021/04/20 04:33:46;;;;;;;35.77;27.93;;;;;;;;;;5037307;28;20183;-81
2021/04/20 04:36:11;;;;;;;36.63;26.47;;;;;;;;;;5037005;28;20211;-81
2021/04/20 04:38:37;;;;;;;27.13;20.33;;;;;;;;;;5037126;28;20224;-82
2021/04/20 04:41:03;;;;;;;27.23;21.15;;;;;;;;;;5036485;28;20588;-82
2021/04/20 04:43:28;;;;;;;24.50;18.73;;;;;;;;;;5036592;28;20180;-82
2021/04/20 04:45:55;;;;;;;18.00;16.00;;;;;;;;;;5036496;28;20168;-82
2021/04/20 04:48:20;;;;;;;16.33;14.30;;;;;;;;;;5036626;28;20218;-82
2021/04/20 04:50:46;;;;;;;15.57;14.05;;;;;;;;;;5036434;28;20679;-82
2021/04/20 04:53:12;;;;;;;14.95;13.65;;;;;;;;;;5036975;28;20179;-82
2021/04/20 04:55:37;;;;;;;15.52;13.75;;;;;;;;;;5036531;28;20204;-82
2021/04/20 04:58:03;;;;;;;15.05;13.55;;;;;;;;;;5036220;28;20260;-82
2021/04/20 05:00:29;;;;;;;15.57;14.15;;;;;;;;;;5036936;28;20172;-82
2021/04/20 05:02:55;;;;;;;13.73;12.32;;;;;;;;;;5036376;28;20526;-82
2021/04/20 05:05:20;;;;;;;14.60;13.20;;;;;;;;;;5036099;28;20164;-82
2021/04/20 05:07:46;;;;;;;15.20;13.27;;;;;;;;;;5036056;28;20218;-82
2021/04/20 05:10:13;;;;;;;15.35;13.90;;;;;;;;;;5036582;28;20199;-82
2021/04/20 05:12:39;;;;;;;15.48;13.98;;;;;;;;;;5035992;28;20204;-82
2021/04/20 05:15:06;;;;;;;15.55;14.15;;;;;;;;;;5035902;28;20161;-82
2021/04/20 05:17:32;;;;;;;15.30;13.80;;;;;;;;;;5036420;28;20231;-82
2021/04/20 05:19:57;;;;;;;16.23;14.57;;;;;;;;;;5036124;28;20561;-82
2021/04/20 05:22:22;;;;;;;15.77;14.27;;;;;;;;;;5036258;28;20251;-82
2021/04/20 05:24:48;;;;;;;15.32;13.82;;;;;;;;;;5036047;28;20172;-82
2021/04/20 05:27:13;;;;;;;16.27;14.88;;;;;;;;;;5036257;28;20172;-82
2021/04/20 05:29:40;;;;;;;15.82;14.43;;;;;;;;;;5035903;28;20195;-83
2021/04/20 05:32:06;;;;;;;15.85;14.45;;;;;;;;;;5036171;28;20184;-83
2021/04/20 05:34:31;;;;;;;15.57;14.13;;;;;;;;;;5036083;28;20519;-83
2021/04/20 05:36:56;;;;;;;17.92;16.27;;;;;;;;;;5036139;28;20173;-83
2021/04/20 05:39:22;;;;;;;16.83;15.23;;;;;;;;;;5035372;28;20236;-83
2021/04/20 05:41:47;;;;;;;15.82;14.43;;;;;;;;;;5035910;28;20164;-82
2021/04/20 05:44:13;;;;;;;17.27;15.65;;;;;;;;;;5035847;28;20526;-83
2021/04/20 05:46:43;;;;;;;16.38;14.80;;;;;;;;;;5035446;28;20188;-82
2021/04/20 05:49:09;;;;;;;16.83;15.23;;;;;;;;;;5035851;28;20202;-83
2021/04/20 05:51:35;;;;;;;18.83;17.10;;;;;;;;;;5035836;28;20589;-82
2021/04/20 05:54:00;;;;;;;17.58;15.85;;;;;;;;;;5035684;28;20172;-82
2021/04/20 05:56:26;;;;;;;17.20;15.43;;;;;;;;;;5035954;28;20558;-83
2021/04/20 05:58:57;;;;;;;15.90;14.50;;;;;;;;;;5033095;28;20279;-83
2021/04/20 06:01:27;;;;;;;16.88;15.38;;;;;;;;;;5032075;28;20176;-83
2021/04/20 06:03:53;;;;;;;17.35;15.82;;;;;;;;;;5031677;28;20192;-83
2021/04/20 06:06:20;;;;;;;15.65;14.25;;;;;;;;;;5035068;28;20176;-82
2021/04/20 06:08:47;;;;;;;16.52;15.02;;;;;;;;;;5034598;28;20201;-83
2021/04/20 06:11:13;;;;;;;16.65;15.00;;;;;;;;;;5034936;28;20204;-83
2021/04/20 06:13:38;;;;;;;15.52;14.32;;;;;;;;;;5035030;28;20207;-82
2021/04/20 06:16:04;;;;;;;15.35;13.80;;;;;;;;;;5034636;28;20689;-82
2021/04/20 06:18:30;;;;;;;16.42;15.00;;;;;;;;;;5033716;28;20638;-83
2021/04/20 06:20:56;;;;;;;16.40;14.93;;;;;;;;;;5033232;28;20722;-83
2021/04/20 06:23:23;;;;;;;15.75;14.45;;;;;;;;;;5033873;28;20164;-83
2021/04/20 06:25:49;;;;;;;15.35;14.00;;;;;;;;;;5034556;28;20314;-83
2021/04/20 06:28:15;;;;;;;16.02;14.55;;;;;;;;;;5034109;28;20306;-83
2021/04/20 06:30:41;;;;;;;14.98;13.38;;;;;;;;;;5034658;28;20283;-83
2021/04/20 06:33:07;;;;;;;16.20;14.77;;;;;;;;;;5034524;28;20172;-83
2021/04/20 06:35:33;;;;;;;17.20;15.48;;;;;;;;;;5034529;28;20184;-83
2021/04/20 06:37:59;;;;;;;15.55;14.20;;;;;;;;;;5034151;28;20200;-80
2021/04/20 06:40:27;;;;;;;14.45;13.15;;;;;;;;;;5033852;28;20184;-82
2021/04/20 06:42:55;;;;;;;14.50;13.20;;;;;;;;;;5034377;28;20168;-83
2021/04/20 06:45:26;;;;;;;15.10;13.70;;;;;;;;;;5034037;28;20275;-82
2021/04/20 06:47:59;;;;;;;16.58;14.38;;;;;;;;;;5033925;28;20168;-83
2021/04/20 06:50:25;;;;;;;14.15;12.88;;;;;;;;;;5033190;28;20271;-82
2021/04/20 06:52:55;;;;;;;17.45;12.23;;;;;;;;;;5034065;28;20251;-83
2021/04/20 06:55:43;;;;;;;14.27;12.98;;;;;;;;;;5034240;28;20176;-82
2021/04/20 06:58:27;;;;;;;12.40;11.18;;;;;;;;;;5033715;28;20183;-82
2021/04/20 07:00:55;;;;;;;13.25;11.93;;;;;;;;;;5034319;28;20179;-82
2021/04/20 07:03:28;;;;;;;13.38;12.07;;;;;;;;;;5033134;28;20173;-82
2021/04/20 07:05:54;;;;;;;13.30;12.10;;;;;;;;;;5031319;28;20184;-82
2021/04/20 07:08:28;;;;;;;12.95;11.75;;;;;;;;;;5033497;28;20169;-83
2021/04/20 07:10:57;;;;;;;11.57;10.68;;;;;;;;;;5033952;28;20176;-82
2021/04/20 07:13:24;;;;;;;11.50;10.50;;;;;;;;;;5033648;28;20191;-82
2021/04/20 07:15:56;;;;;;;11.48;10.43;;;;;;;;;;5034026;28;20175;-82
2021/04/20 07:18:40;;;;;;;10.38;9.55;;;;;;;;;;5033259;28;20194;-83
2021/04/20 07:21:06;;;;;;;11.18;10.05;;;;;;;;;;5032267;28;20639;-82
2021/04/20 07:23:34;;;;;;;10.23;9.20;;;;;;;;;;5034022;28;20181;-82
2021/04/20 07:26:08;;;;;;;10.48;9.50;;;;;;;;;;5033566;28;20196;-83
2021/04/20 07:28:36;;;;;;;9.70;8.80;;;;;;;;;;5032236;28;20180;-83
2021/04/20 07:31:18;;;;;;;9.15;8.27;;;;;;;;;;5033284;28;20187;-83
2021/04/20 07:34:02;;;;;;;7.88;7.18;;;;;;;;;;5031743;28;20203;-83
2021/04/20 07:36:33;;;;;;;8.80;7.00;;;;;;;;;;5033380;28;20183;-82
2021/04/20 07:39:09;;;;;;;7.70;7.10;;;;;;;;;;5033645;28;20235;-83
2021/04/20 07:41:43;;;;;;;8.15;7.55;;;;;;;;;;5033754;28;20626;-82
2021/04/20 07:44:24;;;;;;;21.77;19.42;;;;;;;;;;5034031;28;20200;-81
2021/04/20 07:46:53;;;;;;;13.82;12.50;;;;;;;;;;5033735;28;20210;-82
2021/04/20 07:49:18;;;;;;;7.70;7.00;;;;;;;;;;5033625;28;20196;-82
2021/04/20 07:51:46;;;;;;;9.18;8.30;;;;;;;;;;5033865;28;20260;-82
2021/04/20 07:54:20;;;;;;;6.78;6.15;;;;;;;;;;5033381;28;20168;-82
2021/04/20 07:56:51;;;;;;;7.05;6.15;;;;;;;;;;5033438;28;20168;-82
2021/04/20 07:59:22;;;;;;;6.20;5.68;;;;;;;;;;5033583;28;20172;-82
2021/04/20 08:01:52;;;;;;;5.95;5.55;;;;;;;;;;5035907;28;20173;-82
2021/04/20 08:04:17;;;;;;;5.68;5.10;;;;;;;;;;5037403;28;20628;-82
2021/04/20 08:06:45;;;;;;;5.75;5.13;;;;;;;;;;5037122;28;20193;-81
2021/04/20 08:09:20;;;;;;;5.57;5.18;;;;;;;;;;5037256;28;20674;-81
2021/04/20 08:11:47;;;;;;;4.93;4.45;;;;;;;;;;5037016;28;20199;-81
2021/04/20 08:14:23;;;;;;;5.35;4.85;;;;;;;;;;5035972;28;20634;-81
2021/04/20 08:16:58;;;;;;;5.05;4.60;;;;;;;;;;5036932;28;20616;-81
2021/04/20 08:19:24;;;;;;;5.43;4.93;;;;;;;;;;5036768;28;20176;-81
2021/04/20 08:21:50;;;;;;;4.57;4.28;;;;;;;;;;5037181;28;20218;-81
2021/04/20 08:24:29;;;;;;;4.70;4.30;;;;;;;;;;5035666;28;20208;-81
2021/04/20 08:27:00;;;;;;;5.03;4.55;;;;;;;;;;5035082;28;20169;-81
2021/04/20 08:29:28;;;;;;;5.18;4.78;;;;;;;;;;5034600;28;20215;-81
2021/04/20 08:32:02;;;;;;;4.75;4.35;;;;;;;;;;5035188;28;20164;-81
2021/04/20 08:34:30;;;;;;;5.15;4.75;;;;;;;;;;5034598;28;20179;-81
2021/04/20 08:37:06;;;;;;;5.32;4.93;;;;;;;;;;5034901;28;20172;-81
2021/04/20 08:39:37;;;;;;;5.47;5.03;;;;;;;;;;5034714;28;20232;-81
2021/04/20 08:42:21;;;;;;;4.80;4.40;;;;;;;;;;5034566;28;20718;-81
2021/04/20 08:44:59;;;;;;;5.22;4.72;;;;;;;;;;5035955;28;20553;-81
2021/04/20 08:47:28;;;;;;;6.18;5.57;;;;;;;;;;5035066;28;20227;-81
2021/04/20 08:49:56;;;;;;;7.63;6.60;;;;;;;;;;5036187;28;20200;-81
2021/04/20 08:52:21;;;;;;;5.30;4.90;;;;;;;;;;5036310;28;20536;-81
2021/04/20 08:55:05;;;;;;;6.60;4.97;;;;;;;;;;5034680;28;20180;-81
2021/04/20 08:57:39;;;;;;;5.13;4.63;;;;;;;;;;5036148;28;20226;-81
2021/04/20 09:00:37;;;;;;;5.40;4.50;;;;;;;;;;5035698;28;20198;-81
2021/04/20 09:03:11;;;;;;;5.80;5.30;;;;;;;;;;5032793;28;20287;-81
2021/04/20 09:05:43;;;;;;;5.20;4.77;;;;;;;;;;5036318;28;20195;-81
2021/04/20 09:08:43;;;;;;;5.00;4.60;;;;;;;;;;5036327;28;20630;-81
2021/04/20 09:11:10;;;;;;;5.30;4.80;;;;;;;;;;5034034;28;20192;-82
2021/04/20 09:13:56;;;;;;;5.83;5.23;;;;;;;;;;5034221;28;20216;-81
2021/04/20 09:16:24;;;;;;;5.77;5.27;;;;;;;;;;5036180;28;20511;-81
2021/04/20 09:18:51;;;;;;;5.17;4.77;;;;;;;;;;5035369;28;20204;-81
2021/04/20 09:21:22;;;;;;;5.63;5.13;;;;;;;;;;5035492;28;20255;-81
2021/04/20 09:23:54;;;;;;;5.27;4.80;;;;;;;;;;5035381;28;20172;-81
2021/04/20 09:26:19;;;;;;;5.70;5.20;;;;;;;;;;5034248;28;20199;-81
2021/04/20 09:28:54;;;;;;;6.87;5.30;;;;;;;;;;5032975;28;20188;-81
2021/04/20 09:31:22;;;;;;;5.10;4.70;;;;;;;;;;5033954;28;20576;-81
2021/04/20 09:33:50;;;;;;;5.60;5.10;;;;;;;;;;5032539;28;20177;-81
2021/04/20 09:36:16;;;;;;;5.50;4.90;;;;;;;;;;5033678;28;20188;-81
2021/04/20 09:38:43;;;;;;;5.73;5.23;;;;;;;;;;5033653;28;20228;-81
2021/04/20 09:41:09;;;;;;;5.77;5.23;;;;;;;;;;5033990;28;20183;-81
2021/04/20 09:43:48;;;;;;;6.80;5.60;;;;;;;;;;5033912;28;20246;-82
2021/04/20 09:46:29;;;;;;;5.20;4.70;;;;;;;;;;5035580;28;20160;-81
2021/04/20 09:49:11;;;;;;;5.40;5.00;;;;;;;;;;5035043;28;20545;-81
2021/04/20 09:51:48;;;;;;;5.30;4.90;;;;;;;;;;5034927;28;20191;-81
2021/04/20 09:54:13;;;;;;;6.00;5.50;;;;;;;;;;5033814;28;20194;-81
2021/04/20 09:56:44;;;;;;;6.00;5.47;;;;;;;;;;5024821;28;20184;-81
2021/04/20 09:59:16;;;;;;;5.90;5.40;;;;;;;;;;5015318;28;20174;-81
2021/04/20 10:01:51;;;;;;;5.80;5.30;;;;;;;;;;5015192;28;20541;-81
2021/04/20 10:04:36;;;;;;;8.07;6.30;;;;;;;;;;5028625;28;20205;-81
2021/04/20 10:07:14;;;;;;;5.37;4.97;;;;;;;;;;5054745;28;20187;-81
2021/04/20 10:09:46;;;;;;;6.80;5.30;;;;;;;;;;5054981;28;20203;-80
2021/04/20 10:12:23;;;;;;;10.77;6.93;;;;;;;;;;5055193;28;20180;-80
2021/04/20 10:15:00;;;;;;;6.57;5.40;;;;;;;;;;5035816;28;20184;-80
2021/04/20 10:17:37;;;;;;;6.80;5.70;;;;;;;;;;5034266;28;20507;-80
2021/04/20 10:20:07;;;;;;;6.60;5.90;;;;;;;;;;5034573;28;20298;-80
2021/04/20 10:22:51;;;;;;;8.67;6.50;;;;;;;;;;5034684;28;20572;-80
2021/04/20 10:25:19;;;;;;;7.07;6.37;;;;;;;;;;5033158;28;20570;-81
2021/04/20 10:27:46;;;;;;;6.50;5.90;;;;;;;;;;5034658;28;20173;-81
2021/04/20 10:30:18;;;;;;;7.03;6.43;;;;;;;;;;5034615;28;20200;-81
2021/04/20 10:32:51;;;;;;;6.10;5.50;;;;;;;;;;5034307;28;20627;-81
2021/04/20 10:35:17;;;;;;;7.83;6.23;;;;;;;;;;5034474;28;20211;-81
2021/04/20 10:37:47;;;;;;;7.10;5.93;;;;;;;;;;5034434;28;20200;-81
2021/04/20 10:40:15;;;;;;;6.37;5.73;;;;;;;;;;5032690;28;20251;-81
2021/04/20 10:42:44;;;;;;;6.60;5.90;;;;;;;;;;5033449;28;20180;-80
2021/04/20 10:45:12;;;;;;;6.10;5.60;;;;;;;;;;5033902;28;20197;-80
2021/04/20 10:47:38;;;;;;;6.37;5.83;;;;;;;;;;5034194;28;20256;-81
2021/04/20 10:50:05;;;;;;;6.63;5.93;;;;;;;;;;5033701;28;20204;-81
2021/04/20 10:52:32;;;;;;;6.50;5.63;;;;;;;;;;5034017;28;20177;-81
2021/04/20 10:55:10;;;;;;;6.33;5.80;;;;;;;;;;5034258;28;20176;-81
2021/04/20 10:57:39;;;;;;;6.30;5.70;;;;;;;;;;5034619;28;20179;-81
2021/04/20 11:00:05;;;;;;;6.67;5.73;;;;;;;;;;5034315;28;20168;-81
2021/04/20 11:02:34;;;;;;;6.70;5.67;;;;;;;;;;5032405;28;20259;-81
2021/04/20 11:05:00;;;;;;;6.83;5.50;;;;;;;;;;5033987;28;20267;-81
2021/04/20 11:07:28;;;;;;;7.47;5.37;;;;;;;;;;5034014;28;20179;-81
2021/04/20 11:09:58;;;;;;;7.00;6.30;;;;;;;;;;5034037;28;20223;-81
2021/04/20 11:12:24;;;;;;;6.10;5.50;;;;;;;;;;5033935;28;20177;-81
2021/04/20 11:14:51;;;;;;;5.77;5.27;;;;;;;;;;5033591;28;20623;-81
2021/04/20 11:17:31;;;;;;;5.70;5.20;;;;;;;;;;5033728;28;20176;-81
2021/04/20 11:19:59;;;;;;;6.90;6.20;;;;;;;;;;5033383;28;20560;-81
2021/04/20 11:22:26;;;;;;;6.83;6.20;;;;;;;;;;5033759;28;20255;-81
2021/04/20 11:24:54;;;;;;;9.33;7.87;;;;;;;;;;5033664;28;20590;-81
2021/04/20 11:27:22;;;;;;;6.20;5.67;;;;;;;;;;5033944;28;20175;-81
2021/04/20 11:29:52;;;;;;;6.07;5.53;;;;;;;;;;5033483;28;20207;-81
2021/04/20 11:32:20;;;;;;;6.67;5.77;;;;;;;;;;5033724;28;20181;-81
2021/04/20 11:34:47;;;;;;;6.47;5.80;;;;;;;;;;5033569;28;20179;-81
2021/04/20 11:37:18;;;;;;;5.77;5.20;;;;;;;;;;5040016;28;20177;-81
2021/04/20 11:39:48;;;;;;;6.73;6.13;;;;;;;;;;5040115;28;20358;-81
2021/04/20 11:42:15;;;;;;;6.23;5.60;;;;;;;;;;5040676;28;20184;-81
2021/04/20 11:44:46;;;;;;;6.10;5.50;;;;;;;;;;5039971;28;20215;-81
2021/04/20 11:47:12;;;;;;;5.87;5.33;;;;;;;;;;5040267;28;20173;-81
2021/04/20 11:49:45;;;;;;;6.13;5.63;;;;;;;;;;5039939;28;20195;-81
2021/04/20 11:52:22;;;;;;;5.67;5.07;;;;;;;;;;5040175;28;20163;-81
2021/04/20 11:54:53;;;;;;;6.33;5.83;;;;;;;;;;5040239;28;20177;-81
2021/04/20 11:57:19;;;;;;;5.87;5.37;;;;;;;;;;5038920;28;20164;-81
2021/04/20 11:59:46;;;;;;;6.03;5.53;;;;;;;;;;5036568;28;20669;-81
2021/04/20 12:02:12;;;;;;;6.77;6.17;;;;;;;;;;5039511;28;20267;-81
2021/04/20 12:04:40;;;;;;;7.20;6.53;;;;;;;;;;5039778;28;20640;-81
2021/04/20 12:07:06;;;;;;;8.20;7.33;;;;;;;;;;5040077;28;20187;-81
2021/04/20 12:09:36;;;;;;;8.10;7.27;;;;;;;;;;5040068;28;20200;-81
2021/04/20 12:12:02;;;;;;;9.57;7.13;;;;;;;;;;5039155;28;20176;-81
2021/04/20 12:14:29;;;;;;;7.50;6.80;;;;;;;;;;5039457;28;20643;-81
2021/04/20 12:16:56;;;;;;;6.60;5.90;;;;;;;;;;5039536;28;20171;-81
2021/04/20 12:19:24;;;;;;;7.80;7.00;;;;;;;;;;5039209;28;20251;-81
2021/04/20 12:21:52;;;;;;;7.20;6.50;;;;;;;;;;5039331;28;20259;-81
2021/04/20 12:24:20;;;;;;;6.60;6.10;;;;;;;;;;5039176;28;20176;-81
2021/04/20 12:26:50;;;;;;;7.03;5.80;;;;;;;;;;5039141;28;20180;-81
2021/04/20 12:29:16;;;;;;;6.23;5.70;;;;;;;;;;5036928;28;20203;-81
2021/04/20 12:31:41;;;;;;;6.90;5.60;;;;;;;;;;5033573;28;20184;-81
2021/04/20 12:34:07;;;;;;;6.30;5.77;;;;;;;;;;5038414;28;20172;-81
2021/04/20 12:36:38;;;;;;;6.27;5.67;;;;;;;;;;5039021;28;20233;-81
2021/04/20 12:39:05;;;;;;;6.07;5.57;;;;;;;;;;5038771;28;20216;-81
2021/04/20 12:41:32;;;;;;;6.87;6.17;;;;;;;;;;5038926;28;20173;-81
2021/04/20 12:43:59;;;;;;;6.10;5.60;;;;;;;;;;5039129;28;20172;-81
2021/04/20 12:46:26;;;;;;;7.10;5.83;;;;;;;;;;5039538;28;20164;-81
2021/04/20 12:48:53;;;;;;;6.93;6.23;;;;;;;;;;5035318;28;20180;-81
2021/04/20 12:51:20;;;;;;;6.27;5.77;;;;;;;;;;5036236;28;20534;-81
2021/04/20 12:53:49;;;;;;;7.17;6.47;;;;;;;;;;5036572;28;20176;-81
2021/04/20 12:56:19;;;;;;;7.50;5.80;;;;;;;;;;5036557;28;20173;-81
2021/04/20 12:58:44;;;;;;;6.43;5.90;;;;;;;;;;5036716;28;20177;-81
2021/04/20 13:01:10;;;;;;;7.70;7.00;;;;;;;;;;5036405;28;20612;-81
2021/04/20 13:03:36;;;;;;;6.57;6.07;;;;;;;;;;5036450;28;20179;-81
2021/04/20 13:06:08;;;;;;;6.80;6.13;;;;;;;;;;5036142;28;20226;-81
2021/04/20 13:08:34;;;;;;;7.57;6.80;;;;;;;;;;5036294;28;20244;-81
2021/04/20 13:10:59;;;;;;;7.63;6.93;;;;;;;;;;5034499;28;20307;-82
2021/04/20 13:13:26;;;;;;;8.27;7.37;;;;;;;;;;5033722;28;20173;-81
2021/04/20 13:15:55;;;;;;;7.80;6.40;;;;;;;;;;5033861;28;20219;-82
2021/04/20 13:18:23;;;;;;;6.37;5.77;;;;;;;;;;5034062;28;20195;-82
2021/04/20 13:20:49;;;;;;;7.53;6.57;;;;;;;;;;5033934;28;20177;-81
2021/04/20 13:23:19;;;;;;;10.50;9.40;;;;;;;;;;5034482;28;20173;-82
2021/04/20 13:25:51;;;;;;;10.23;9.20;;;;;;;;;;5028301;28;21473;-82
2021/04/20 13:28:24;;;;;;;9.10;8.10;;;;;;;;;;5034286;28;20195;-81
2021/04/20 13:30:50;;;;;;;9.40;8.40;;;;;;;;;;5035399;28;20204;-81
2021/04/20 13:33:16;;;;;;;9.47;8.30;;;;;;;;;;5035431;28;20535;-82
2021/04/20 13:35:42;;;;;;;10.97;8.67;;;;;;;;;;5034376;28;20177;-82
2021/04/20 13:38:08;;;;;;;8.53;7.30;;;;;;;;;;5035210;28;20246;-81
2021/04/20 13:40:33;;;;;;;9.53;7.93;;;;;;;;;;5035354;28;20164;-81
2021/04/20 13:43:03;;;;;;;10.70;8.10;;;;;;;;;;5035465;28;20173;-81
2021/04/20 13:45:33;;;;;;;10.70;8.20;;;;;;;;;;5035409;28;20197;-81
2021/04/20 13:47:59;;;;;;;7.83;7.10;;;;;;;;;;5035432;28;20169;-81
2021/04/20 13:50:26;;;;;;;8.33;7.47;;;;;;;;;;5035135;28;20222;-81
2021/04/20 13:52:52;;;;;;;10.43;9.27;;;;;;;;;;5035139;28;20185;-81
2021/04/20 13:55:19;;;;;;;13.87;10.63;;;;;;;;;;5033612;28;20226;-81
2021/04/20 13:58:10;;;;;;;10.30;8.90;;;;;;;;;;5033782;28;20176;-81
2021/04/20 14:00:38;;;;;;;9.73;8.73;;;;;;;;;;5024216;28;20188;-81
2021/04/20 14:03:05;;;;;;;13.10;10.23;;;;;;;;;;5035294;28;20172;-81
2021/04/20 14:05:31;;;;;;;12.90;11.20;;;;;;;;;;5034327;28;20179;-82
2021/04/20 14:07:57;;;;;;;13.30;9.43;;;;;;;;;;5032569;28;20180;-81
2021/04/20 14:10:25;;;;;;;8.27;7.47;;;;;;;;;;5034659;28;20215;-81
2021/04/20 14:12:57;;;;;;;8.00;7.27;;;;;;;;;;5034829;28;20181;-81
2021/04/20 14:15:27;;;;;;;9.03;7.40;;;;;;;;;;5034968;28;20173;-81
2021/04/20 14:17:54;;;;;;;8.90;7.53;;;;;;;;;;5034537;28;20176;-81
2021/04/20 14:20:26;;;;;;;8.63;7.80;;;;;;;;;;5035031;28;20180;-81
2021/04/20 14:22:55;;;;;;;10.47;8.30;;;;;;;;;;5035024;28;20176;-81
2021/04/20 14:25:21;;;;;;;16.63;8.23;;;;;;;;;;5034108;28;20584;-81
2021/04/20 14:27:50;;;;;;;8.93;7.87;;;;;;;;;;5034375;28;20173;-81
2021/04/20 14:30:16;;;;;;;8.40;7.60;;;;;;;;;;5034542;28;20196;-81
2021/04/20 14:32:45;;;;;;;8.60;7.33;;;;;;;;;;5034594;28;20187;-82
2021/04/20 14:35:11;;;;;;;7.97;7.20;;;;;;;;;;5034153;28;20309;-82